sensor_id;sensor_type;location;lat;lon;timestamp;P1;durP1;ratioP1;P2;durP2;ratioP2
78372;SDS011;67656;52.074;4.758;2023-02-15T00:04:43;51.27;;;16.87;;
78372;SDS011;67656;52.074;4.758;2023-02-15T00:09:47;57.00;;;18.37;;
78372;SDS011;67656;52.074;4.758;2023-02-15T00:14:47;47.83;;;17.03;;
78372;SDS011;67656;52.074;4.758;2023-02-15T00:19:48;54.10;;;17.23;;
78372;SDS011;67656;52.074;4.758;2023-02-15T00:24:49;45.53;;;15.00;;
78372;SDS011;67656;52.074;4.758;2023-02-15T00:29:49;36.87;;;12.90;;
78372;SDS011;67656;52.074;4.758;2023-02-15T00:34:49;32.13;;;12.13;;
78372;SDS011;67656;52.074;4.758;2023-02-15T00:39:50;36.27;;;12.50;;
78372;SDS011;67656;52.074;4.758;2023-02-15T00:44:51;34.37;;;12.33;;
78372;SDS011;67656;52.074;4.758;2023-02-15T00:49:51;28.63;;;10.70;;
78372;SDS011;67656;52.074;4.758;2023-02-15T00:54:52;24.47;;;10.63;;
78372;SDS011;67656;52.074;4.758;2023-02-15T00:59:52;23.10;;;10.30;;
78372;SDS011;67656;52.074;4.758;2023-02-15T01:04:53;23.30;;;10.40;;
78372;SDS011;67656;52.074;4.758;2023-02-15T01:09:54;29.53;;;10.33;;
78372;SDS011;67656;52.074;4.758;2023-02-15T01:14:57;38.27;;;12.30;;
78372;SDS011;67656;52.074;4.758;2023-02-15T01:19:59;27.10;;;10.57;;
78372;SDS011;67656;52.074;4.758;2023-02-15T01:24:59;28.10;;;11.50;;
78372;SDS011;67656;52.074;4.758;2023-02-15T01:30:03;27.77;;;11.23;;
78372;SDS011;67656;52.074;4.758;2023-02-15T01:35:03;29.70;;;11.83;;
78372;SDS011;67656;52.074;4.758;2023-02-15T01:40:05;32.47;;;12.43;;
78372;SDS011;67656;52.074;4.758;2023-02-15T01:50:28;36.00;;;12.18;;
78372;SDS011;67656;52.074;4.758;2023-02-15T01:55:33;34.00;;;11.23;;
78372;SDS011;67656;52.074;4.758;2023-02-15T02:00:39;37.60;;;11.93;;
78372;SDS011;67656;52.074;4.758;2023-02-15T02:05:40;39.90;;;12.97;;
78372;SDS011;67656;52.074;4.758;2023-02-15T02:10:41;43.43;;;14.40;;
78372;SDS011;67656;52.074;4.758;2023-02-15T02:15:52;55.27;;;16.37;;
78372;SDS011;67656;52.074;4.758;2023-02-15T02:32:14;44.63;;;15.10;;
78372;SDS011;67656;52.074;4.758;2023-02-15T02:37:35;45.20;;;13.57;;
78372;SDS011;67656;52.074;4.758;2023-02-15T02:48:18;46.37;;;13.70;;
78372;SDS011;67656;52.074;4.758;2023-02-15T02:53:23;53.30;;;16.00;;
78372;SDS011;67656;52.074;4.758;2023-02-15T02:58:29;43.10;;;13.97;;
78372;SDS011;67656;52.074;4.758;2023-02-15T03:03:48;36.73;;;13.73;;
78372;SDS011;67656;52.074;4.758;2023-02-15T03:09:25;39.83;;;13.67;;
78372;SDS011;67656;52.074;4.758;2023-02-15T03:14:32;39.67;;;12.93;;
78372;SDS011;67656;52.074;4.758;2023-02-15T03:19:37;49.87;;;13.93;;
78372;SDS011;67656;52.074;4.758;2023-02-15T03:24:47;35.83;;;12.60;;
78372;SDS011;67656;52.074;4.758;2023-02-15T03:30:10;40.33;;;13.50;;
78372;SDS011;67656;52.074;4.758;2023-02-15T03:35:20;42.63;;;12.73;;
78372;SDS011;67656;52.074;4.758;2023-02-15T03:40:30;41.13;;;13.40;;
78372;SDS011;67656;52.074;4.758;2023-02-15T03:45:34;38.17;;;12.70;;
78372;SDS011;67656;52.074;4.758;2023-02-15T03:50:38;37.00;;;13.07;;
78372;SDS011;67656;52.074;4.758;2023-02-15T03:55:42;39.57;;;11.90;;
78372;SDS011;67656;52.074;4.758;2023-02-15T04:00:49;36.00;;;12.93;;
78372;SDS011;67656;52.074;4.758;2023-02-15T04:05:55;38.37;;;13.43;;
78372;SDS011;67656;52.074;4.758;2023-02-15T04:10:55;37.83;;;13.13;;
78372;SDS011;67656;52.074;4.758;2023-02-15T04:15:57;41.90;;;13.33;;
78372;SDS011;67656;52.074;4.758;2023-02-15T04:20:57;45.50;;;14.23;;
78372;SDS011;67656;52.074;4.758;2023-02-15T04:25:58;46.27;;;14.20;;
78372;SDS011;67656;52.074;4.758;2023-02-15T04:30:58;39.90;;;13.23;;
78372;SDS011;67656;52.074;4.758;2023-02-15T04:35:59;49.30;;;14.40;;
78372;SDS011;67656;52.074;4.758;2023-02-15T04:41:01;57.13;;;16.27;;
78372;SDS011;67656;52.074;4.758;2023-02-15T04:46:02;54.77;;;16.20;;
78372;SDS011;67656;52.074;4.758;2023-02-15T04:51:07;56.80;;;17.73;;
78372;SDS011;67656;52.074;4.758;2023-02-15T04:56:08;66.57;;;18.37;;
78372;SDS011;67656;52.074;4.758;2023-02-15T05:01:11;67.87;;;19.27;;
78372;SDS011;67656;52.074;4.758;2023-02-15T05:06:12;63.93;;;17.97;;
78372;SDS011;67656;52.074;4.758;2023-02-15T05:11:12;67.23;;;18.73;;
78372;SDS011;67656;52.074;4.758;2023-02-15T05:16:12;68.23;;;20.37;;
78372;SDS011;67656;52.074;4.758;2023-02-15T05:21:13;70.60;;;18.23;;
78372;SDS011;67656;52.074;4.758;2023-02-15T05:26:16;76.27;;;19.80;;
78372;SDS011;67656;52.074;4.758;2023-02-15T05:31:21;68.53;;;19.23;;
78372;SDS011;67656;52.074;4.758;2023-02-15T05:36:21;68.80;;;18.87;;
78372;SDS011;67656;52.074;4.758;2023-02-15T05:41:22;66.70;;;19.40;;
78372;SDS011;67656;52.074;4.758;2023-02-15T05:46:22;63.60;;;18.13;;
78372;SDS011;67656;52.074;4.758;2023-02-15T05:51:22;72.83;;;18.27;;
78372;SDS011;67656;52.074;4.758;2023-02-15T05:56:23;79.40;;;20.13;;
78372;SDS011;67656;52.074;4.758;2023-02-15T06:01:23;80.43;;;17.67;;
78372;SDS011;67656;52.074;4.758;2023-02-15T06:06:30;65.47;;;17.20;;
78372;SDS011;67656;52.074;4.758;2023-02-15T06:11:31;62.97;;;17.80;;
78372;SDS011;67656;52.074;4.758;2023-02-15T06:16:31;62.77;;;17.90;;
78372;SDS011;67656;52.074;4.758;2023-02-15T06:21:34;62.90;;;17.43;;
78372;SDS011;67656;52.074;4.758;2023-02-15T06:26:37;79.30;;;19.43;;
78372;SDS011;67656;52.074;4.758;2023-02-15T06:31:38;72.17;;;18.97;;
78372;SDS011;67656;52.074;4.758;2023-02-15T06:36:38;84.53;;;20.20;;
78372;SDS011;67656;52.074;4.758;2023-02-15T06:41:39;57.17;;;17.20;;
78372;SDS011;67656;52.074;4.758;2023-02-15T06:46:39;66.03;;;18.57;;
78372;SDS011;67656;52.074;4.758;2023-02-15T06:51:40;71.70;;;17.83;;
78372;SDS011;67656;52.074;4.758;2023-02-15T06:56:40;67.30;;;16.73;;
78372;SDS011;67656;52.074;4.758;2023-02-15T07:01:41;79.97;;;19.47;;
78372;SDS011;67656;52.074;4.758;2023-02-15T07:06:41;73.03;;;17.73;;
78372;SDS011;67656;52.074;4.758;2023-02-15T07:11:42;81.03;;;20.77;;
78372;SDS011;67656;52.074;4.758;2023-02-15T07:16:42;67.17;;;19.43;;
78372;SDS011;67656;52.074;4.758;2023-02-15T07:21:43;87.53;;;20.67;;
78372;SDS011;67656;52.074;4.758;2023-02-15T07:26:43;72.57;;;19.40;;
78372;SDS011;67656;52.074;4.758;2023-02-15T07:31:44;74.93;;;19.63;;
78372;SDS011;67656;52.074;4.758;2023-02-15T07:36:46;76.63;;;18.83;;
78372;SDS011;67656;52.074;4.758;2023-02-15T07:41:47;81.03;;;18.73;;
78372;SDS011;67656;52.074;4.758;2023-02-15T07:46:47;76.23;;;20.97;;
78372;SDS011;67656;52.074;4.758;2023-02-15T07:51:48;106.00;;;24.93;;
78372;SDS011;67656;52.074;4.758;2023-02-15T07:56:48;79.70;;;22.33;;
78372;SDS011;67656;52.074;4.758;2023-02-15T08:01:49;88.57;;;21.67;;
78372;SDS011;67656;52.074;4.758;2023-02-15T08:06:51;96.80;;;23.40;;
78372;SDS011;67656;52.074;4.758;2023-02-15T08:11:53;92.63;;;23.53;;
78372;SDS011;67656;52.074;4.758;2023-02-15T08:16:54;96.07;;;23.13;;
78372;SDS011;67656;52.074;4.758;2023-02-15T08:21:58;104.47;;;27.40;;
78372;SDS011;67656;52.074;4.758;2023-02-15T08:27:00;88.10;;;24.80;;
78372;SDS011;67656;52.074;4.758;2023-02-15T08:32:05;88.37;;;23.60;;
78372;SDS011;67656;52.074;4.758;2023-02-15T08:37:07;85.30;;;22.37;;
78372;SDS011;67656;52.074;4.758;2023-02-15T08:42:08;90.37;;;23.83;;
78372;SDS011;67656;52.074;4.758;2023-02-15T08:47:09;89.47;;;24.90;;
78372;SDS011;67656;52.074;4.758;2023-02-15T08:52:09;87.30;;;23.73;;
78372;SDS011;67656;52.074;4.758;2023-02-15T08:57:09;127.80;;;33.07;;
78372;SDS011;67656;52.074;4.758;2023-02-15T09:02:10;89.03;;;27.10;;
78372;SDS011;67656;52.074;4.758;2023-02-15T09:07:10;87.87;;;28.27;;
78372;SDS011;67656;52.074;4.758;2023-02-15T09:12:11;91.57;;;29.60;;
78372;SDS011;67656;52.074;4.758;2023-02-15T09:17:11;77.83;;;25.07;;
78372;SDS011;67656;52.074;4.758;2023-02-15T09:22:11;76.33;;;25.97;;
78372;SDS011;67656;52.074;4.758;2023-02-15T09:27:12;54.97;;;21.43;;
78372;SDS011;67656;52.074;4.758;2023-02-15T09:32:13;57.03;;;21.63;;
78372;SDS011;67656;52.074;4.758;2023-02-15T09:37:14;53.13;;;19.43;;
78372;SDS011;67656;52.074;4.758;2023-02-15T09:59:19;52.60;;;21.50;;
78372;SDS011;67656;52.074;4.758;2023-02-15T10:09:16;63.60;;;22.03;;
78372;SDS011;67656;52.074;4.758;2023-02-15T10:25:15;49.97;;;19.10;;
78372;SDS011;67656;52.074;4.758;2023-02-15T10:30:20;56.43;;;21.53;;
78372;SDS011;67656;52.074;4.758;2023-02-15T10:35:38;56.67;;;21.63;;
78372;SDS011;67656;52.074;4.758;2023-02-15T11:02:02;51.13;;;20.05;;
78372;SDS011;67656;52.074;4.758;2023-02-15T11:07:16;47.22;;;18.42;;
78372;SDS011;67656;52.074;4.758;2023-02-15T11:12:38;48.00;;;19.02;;
78372;SDS011;67656;52.074;4.758;2023-02-15T11:17:43;47.78;;;20.65;;
78372;SDS011;67656;52.074;4.758;2023-02-15T11:22:48;48.45;;;20.00;;
78372;SDS011;67656;52.074;4.758;2023-02-15T11:27:51;46.38;;;18.92;;
78372;SDS011;67656;52.074;4.758;2023-02-15T11:32:53;48.65;;;19.58;;
78372;SDS011;67656;52.074;4.758;2023-02-15T11:38:01;46.65;;;20.58;;
78372;SDS011;67656;52.074;4.758;2023-02-15T11:43:14;47.83;;;20.42;;
78372;SDS011;67656;52.074;4.758;2023-02-15T11:48:20;45.30;;;19.40;;
78372;SDS011;67656;52.074;4.758;2023-02-15T11:53:21;49.63;;;21.15;;
78372;SDS011;67656;52.074;4.758;2023-02-15T12:09:00;54.17;;;20.30;;
78372;SDS011;67656;52.074;4.758;2023-02-15T12:14:10;52.22;;;21.33;;
78372;SDS011;67656;52.074;4.758;2023-02-15T12:19:22;49.58;;;20.45;;
78372;SDS011;67656;52.074;4.758;2023-02-15T12:29:31;44.50;;;18.98;;
78372;SDS011;67656;52.074;4.758;2023-02-15T12:34:43;50.88;;;19.90;;
78372;SDS011;67656;52.074;4.758;2023-02-15T12:40:28;44.95;;;18.50;;
78372;SDS011;67656;52.074;4.758;2023-02-15T12:45:25;47.20;;;19.47;;
78372;SDS011;67656;52.074;4.758;2023-02-15T12:50:30;45.67;;;18.83;;
78372;SDS011;67656;52.074;4.758;2023-02-15T12:55:30;41.13;;;18.05;;
78372;SDS011;67656;52.074;4.758;2023-02-15T13:00:31;43.22;;;17.73;;
78372;SDS011;67656;52.074;4.758;2023-02-15T13:05:42;45.05;;;18.42;;
78372;SDS011;67656;52.074;4.758;2023-02-15T13:15:59;53.00;;;20.33;;
78372;SDS011;67656;52.074;4.758;2023-02-15T13:21:20;54.47;;;20.90;;
78372;SDS011;67656;52.074;4.758;2023-02-15T13:26:35;43.90;;;18.42;;
78372;SDS011;67656;52.074;4.758;2023-02-15T13:32:14;44.08;;;18.80;;
78372;SDS011;67656;52.074;4.758;2023-02-15T14:44:32;44.40;;;17.45;;
78372;SDS011;67656;52.074;4.758;2023-02-15T15:02:13;37.08;;;16.58;;
78372;SDS011;67656;52.074;4.758;2023-02-15T16:07:43;47.57;;;19.00;;
78372;SDS011;67656;52.074;4.758;2023-02-15T16:18:58;54.38;;;20.25;;
78372;SDS011;67656;52.074;4.758;2023-02-15T16:30:10;47.77;;;19.33;;
78372;SDS011;67656;52.074;4.758;2023-02-15T16:36:00;57.33;;;20.92;;
78372;SDS011;67656;52.074;4.758;2023-02-15T17:08:30;51.47;;;19.80;;
78372;SDS011;67656;52.074;4.758;2023-02-15T17:14:09;56.22;;;20.40;;
78372;SDS011;67656;52.074;4.758;2023-02-15T17:29:36;54.83;;;19.80;;
78372;SDS011;67656;52.074;4.758;2023-02-15T17:35:23;56.73;;;19.90;;
78372;SDS011;67656;52.074;4.758;2023-02-15T17:40:30;60.40;;;20.73;;
78372;SDS011;67656;52.074;4.758;2023-02-15T17:45:44;57.83;;;20.23;;
78372;SDS011;67656;52.074;4.758;2023-02-15T17:51:15;54.63;;;20.03;;
78372;SDS011;67656;52.074;4.758;2023-02-15T17:56:18;56.50;;;21.63;;
78372;SDS011;67656;52.074;4.758;2023-02-15T18:01:24;62.17;;;21.50;;
78372;SDS011;67656;52.074;4.758;2023-02-15T18:06:28;58.60;;;20.63;;
78372;SDS011;67656;52.074;4.758;2023-02-15T18:16:51;55.53;;;20.17;;
78372;SDS011;67656;52.074;4.758;2023-02-15T18:21:52;60.80;;;21.23;;
78372;SDS011;67656;52.074;4.758;2023-02-15T18:26:53;54.10;;;20.17;;
78372;SDS011;67656;52.074;4.758;2023-02-15T18:31:53;52.23;;;19.27;;
78372;SDS011;67656;52.074;4.758;2023-02-15T18:36:56;55.27;;;20.23;;
78372;SDS011;67656;52.074;4.758;2023-02-15T18:41:57;51.17;;;18.20;;
78372;SDS011;67656;52.074;4.758;2023-02-15T18:46:58;55.20;;;19.27;;
78372;SDS011;67656;52.074;4.758;2023-02-15T18:51:58;55.43;;;21.30;;
78372;SDS011;67656;52.074;4.758;2023-02-15T18:57:01;55.47;;;20.87;;
78372;SDS011;67656;52.074;4.758;2023-02-15T19:02:11;53.30;;;19.20;;
78372;SDS011;67656;52.074;4.758;2023-02-15T19:07:16;49.87;;;19.63;;
78372;SDS011;67656;52.074;4.758;2023-02-15T19:12:21;49.57;;;19.80;;
78372;SDS011;67656;52.074;4.758;2023-02-15T19:17:24;56.37;;;19.70;;
78372;SDS011;67656;52.074;4.758;2023-02-15T19:22:25;57.67;;;20.37;;
78372;SDS011;67656;52.074;4.758;2023-02-15T19:27:33;53.87;;;19.63;;
78372;SDS011;67656;52.074;4.758;2023-02-15T19:32:37;60.72;;;20.63;;
78372;SDS011;67656;52.074;4.758;2023-02-15T19:37:38;52.97;;;19.30;;
78372;SDS011;67656;52.074;4.758;2023-02-15T19:42:43;52.33;;;19.90;;
78372;SDS011;67656;52.074;4.758;2023-02-15T19:47:43;56.57;;;19.77;;
78372;SDS011;67656;52.074;4.758;2023-02-15T19:52:44;58.07;;;20.10;;
78372;SDS011;67656;52.074;4.758;2023-02-15T19:57:45;48.33;;;18.10;;
78372;SDS011;67656;52.074;4.758;2023-02-15T20:02:49;58.20;;;19.60;;
78372;SDS011;67656;52.074;4.758;2023-02-15T20:07:53;52.63;;;18.53;;
78372;SDS011;67656;52.074;4.758;2023-02-15T20:13:00;48.20;;;18.90;;
78372;SDS011;67656;52.074;4.758;2023-02-15T20:18:15;49.60;;;18.77;;
78372;SDS011;67656;52.074;4.758;2023-02-15T20:23:36;49.73;;;18.57;;
78372;SDS011;67656;52.074;4.758;2023-02-15T20:28:39;52.60;;;17.93;;
78372;SDS011;67656;52.074;4.758;2023-02-15T20:33:42;49.47;;;17.97;;
78372;SDS011;67656;52.074;4.758;2023-02-15T20:38:55;47.73;;;17.83;;
78372;SDS011;67656;52.074;4.758;2023-02-15T20:44:04;50.07;;;18.57;;
78372;SDS011;67656;52.074;4.758;2023-02-15T20:49:29;50.60;;;19.10;;
78372;SDS011;67656;52.074;4.758;2023-02-15T20:55:20;46.53;;;17.97;;
78372;SDS011;67656;52.074;4.758;2023-02-15T21:00:31;50.23;;;18.53;;
78372;SDS011;67656;52.074;4.758;2023-02-15T21:05:44;52.13;;;19.53;;
78372;SDS011;67656;52.074;4.758;2023-02-15T21:10:56;56.65;;;18.00;;
78372;SDS011;67656;52.074;4.758;2023-02-15T21:16:23;52.93;;;19.07;;
78372;SDS011;67656;52.074;4.758;2023-02-15T21:21:42;50.40;;;19.17;;
78372;SDS011;67656;52.074;4.758;2023-02-15T21:26:45;44.67;;;16.80;;
78372;SDS011;67656;52.074;4.758;2023-02-15T21:31:46;41.87;;;16.70;;
78372;SDS011;67656;52.074;4.758;2023-02-15T21:36:46;43.77;;;16.10;;
78372;SDS011;67656;52.074;4.758;2023-02-15T21:41:48;44.57;;;16.70;;
78372;SDS011;67656;52.074;4.758;2023-02-15T21:46:50;47.30;;;16.10;;
78372;SDS011;67656;52.074;4.758;2023-02-15T21:51:51;40.07;;;15.40;;
78372;SDS011;67656;52.074;4.758;2023-02-15T21:56:51;41.93;;;16.70;;
78372;SDS011;67656;52.074;4.758;2023-02-15T22:01:51;45.50;;;16.90;;
78372;SDS011;67656;52.074;4.758;2023-02-15T22:06:52;40.90;;;16.33;;
78372;SDS011;67656;52.074;4.758;2023-02-15T22:11:53;48.13;;;16.77;;
78372;SDS011;67656;52.074;4.758;2023-02-15T22:16:54;44.27;;;16.53;;
78372;SDS011;67656;52.074;4.758;2023-02-15T22:21:54;43.53;;;16.97;;
78372;SDS011;67656;52.074;4.758;2023-02-15T22:26:54;48.20;;;18.70;;
78372;SDS011;67656;52.074;4.758;2023-02-15T22:31:55;56.53;;;18.00;;
78372;SDS011;67656;52.074;4.758;2023-02-15T22:36:55;52.90;;;19.00;;
78372;SDS011;67656;52.074;4.758;2023-02-15T22:41:57;48.07;;;17.53;;
78372;SDS011;67656;52.074;4.758;2023-02-15T22:46:58;49.87;;;18.47;;
78372;SDS011;67656;52.074;4.758;2023-02-15T22:52:00;56.20;;;20.60;;
78372;SDS011;67656;52.074;4.758;2023-02-15T22:57:05;49.57;;;18.47;;
78372;SDS011;67656;52.074;4.758;2023-02-15T23:02:13;52.57;;;19.63;;
78372;SDS011;67656;52.074;4.758;2023-02-15T23:07:16;53.80;;;19.40;;
78372;SDS011;67656;52.074;4.758;2023-02-15T23:17:25;51.03;;;19.63;;
78372;SDS011;67656;52.074;4.758;2023-02-15T23:22:25;56.17;;;20.47;;
78372;SDS011;67656;52.074;4.758;2023-02-15T23:27:26;57.27;;;22.37;;
78372;SDS011;67656;52.074;4.758;2023-02-15T23:32:26;56.47;;;21.30;;
78372;SDS011;67656;52.074;4.758;2023-02-15T23:37:27;59.77;;;21.37;;
78372;SDS011;67656;52.074;4.758;2023-02-15T23:42:28;57.23;;;21.07;;
78372;SDS011;67656;52.074;4.758;2023-02-15T23:47:31;59.23;;;22.23;;
78372;SDS011;67656;52.074;4.758;2023-02-15T23:52:33;59.20;;;21.80;;
78372;SDS011;67656;52.074;4.758;2023-02-15T23:57:33;63.83;;;22.07;;
